KRRL/RRL METAR and TAF weather

Enter ICAO airport designator
Station Type Date Time Source
KRRL METAR 2022/01/29 13:55 UTC NOAA

KRRL 291355Z AUTO 00000KT 10SM OVC015 M15/M18 A3004 RMK AO2 T11551179 TSNO


Station Type Date Time Source
KRRL Decoded METAR 2022/01/29 13:55 UTC NOAA

Merrill, Merrill Municipal Airport, WI, United States (KRRL) 45-11N 089-42W
Jan 29, 2022 - 08:55 AM EST / 2022.01.29 1355 UTC
Wind: Calm:0
Visibility: 10 mile(s):0
Sky conditions: overcast
Temperature: 4.1 F (-15.5 C)
Dew Point: -0.2 F (-17.9 C)
Relative Humidity: 81%
Pressure (altimeter): 30.04 in. Hg (1017 hPa)
ob: KRRL 291355Z AUTO 00000KT 10SM OVC015 M15/M18 A3004 RMK AO2 T11551179 TSNO
cycle: 14

Station Type Date Time Source
KRRL TAF UTC NOAA

Error!

Example: see airport list